Domov               UVHVVR             MKGP            O straneh              
ZDRAVSTVENO VARSTVO RASTLIN
  MREŽA AGROMET. POSTAJ
 ► PROGNOSTIČNA OBVESTILA
AGROMETEOROLOŠKI PODATKI -
ARSO
OBVLADOVANJE TVEGANJ ZARADI
NEUGODNIH VREMENSKIH RAZMER
  ► NARAVNE NESREČE
  ► SUŠA/MOČA
  ► NAMAKANJE
  ► ŽLED (gozdarstvo)
KARTOGRAFSKI PRIKAZI
SPLETNE POVEZAVE
PROJEKTI IN PUBLIKACIJE

AGROMETEOROLOŠKA MREŽA: VREMENSKE POSTAJE IN FENOLOŠKA OPAZOVANJA

Pregled podatkov za lokacijo Artiče, meteorološka postaja 42800

Pregled senzorjev na lokaciji

ID Ime Zadnja
vrednost
Datum
zadnje
spremembe
Tip
senzorja
4464 Omočenost lista (U) 0 U 25.3.2019 00:30 A730WET
3778 Padavine (mm) 0 mm 25.3.2019 00:30 Rain-O-Matic
2447 Relativna vlaga 2 m (% RH) 58,52 % RH 25.3.2019 00:30 50YA
2446 Temperatura 2 m (°C) 11,09 °C 25.3.2019 00:30 50YA

Pregled podatkov zadnjih 24 ur

Zap.
št.
Datum in čas Artiče
Omočenost
lista
Padavine Relativna
vlaga
2
m
Temperatura
2
m
1 25.3.2019 00:00
2 24.3.2019 23:30 0 0 58,5 11,1
3 24.3.2019 23:00 0 0 53,9 12,4
4 24.3.2019 22:30 0 0 57,1 11,7
5 24.3.2019 22:00 0 0 58,2 11,6
6 24.3.2019 21:30 0 0 48,2 13,8
7 24.3.2019 21:00 0 0 47,6 14,1
8 24.3.2019 20:30 0 0 46 14,8
9 24.3.2019 20:00 0 0 43,7 15,7
10 24.3.2019 19:30 0 0 40,6 16,8
11 24.3.2019 19:00 0 0 39 17,5
12 24.3.2019 18:30 0 0 36,9 18,3
13 24.3.2019 18:00 0 0 35,6 19,1
14 24.3.2019 17:30 0 0 36,3 19,9
15 24.3.2019 17:00 0 0 35,9 20,8
16 24.3.2019 16:30 0 0 35,7 21
17 24.3.2019 16:00 0 0 34,3 21,3
18 24.3.2019 15:30 0 0 34,4 21,1
19 24.3.2019 15:00 0 0 36 21
20 24.3.2019 14:30 0 0 36,9 20,7
21 24.3.2019 14:00 0 0 38,8 20,3
22 24.3.2019 13:30 0 0 38,4 20,1
23 24.3.2019 13:00 0 0 38,4 19,9
24 24.3.2019 12:30 0 0 42,6 18,9
25 24.3.2019 12:00 0 0 44,1 18
26 24.3.2019 11:30 0 0 46,3 17,3
27 24.3.2019 11:00 0 0 49,5 16,3
28 24.3.2019 10:30 0 0 54,6 15,1
29 24.3.2019 10:00 0 0 61,6 13,5
30 24.3.2019 09:30 0 0 67,8 11,8
31 24.3.2019 09:00 0 0 75,3 9,8
32 24.3.2019 08:30 0 0 80,2 8
33 24.3.2019 08:00 0 0 82,8 6,6
34 24.3.2019 07:30 10 0 82,6 6,1
35 24.3.2019 07:00 10 0 88 4,7
36 24.3.2019 06:30 10 0 93,3 3,3
37 24.3.2019 06:00 10 0 91,4 3,3
38 24.3.2019 05:30 10 0 88,2 4
39 24.3.2019 05:00 10 0 85,2 4,7
40 24.3.2019 04:30 10 0 85,1 4,7
41 24.3.2019 04:00 10 0 86,4 4,8
42 24.3.2019 03:30 10 0 84,1 5,1
43 24.3.2019 03:00 8 0 81,4 5,6
44 24.3.2019 02:30 3 0 78,6 6,1
45 24.3.2019 02:00 1 0 78,8 6,3
46 24.3.2019 01:30 0 0 73,9 6,7
47 24.3.2019 01:00 0 0 67,9 8,1
48 24.3.2019 00:30 0 0 68,6 8
© 2011 Ministrstvo za kmetijstvo, gozdarstvo in prehrano. Vse pravice pridržane.